Time;durP1;ratioP1;P1;durP2;ratioP2;P2;SDS_P1;SDS_P2;PMS_P1;PMS_P2;Temp;Humidity;BMP_temperature;BMP_pressure;BME280_temperature;BME280_humidity;BME280_pressure;Samples;Min_cycle;Max_cycle;Signal;HPM_P1;HPM_P2
2024/02/25 00:00:14;;;;;;;14.97;7.57;;;;;;;11.29;100.00;101419.09;2080075;28;20212;-69
2024/02/25 00:01:15;;;;;;;12.60;7.47;;;;;;;11.25;100.00;101416.38;2080059;28;20459;-69
2024/02/25 00:02:16;;;;;;;13.37;7.90;;;;;;;11.24;100.00;101425.13;2079983;28;20570;-69
2024/02/25 00:03:16;;;;;;;13.30;7.53;;;;;;;11.02;100.00;101391.31;2078649;28;20484;-69
2024/02/25 00:04:17;;;;;;;12.80;8.27;;;;;;;11.27;100.00;101424.28;2078697;28;20199;-69
2024/02/25 00:05:18;;;;;;;13.10;7.93;;;;;;;11.29;100.00;101430.19;2079312;28;20177;-69
2024/02/25 00:06:18;;;;;;;12.00;8.07;;;;;;;11.31;100.00;101425.81;2080393;28;20429;-69
2024/02/25 00:07:19;;;;;;;14.67;7.90;;;;;;;11.33;100.00;101433.72;2079842;28;20247;-69
2024/02/25 00:08:19;;;;;;;14.93;7.03;;;;;;;11.34;100.00;101422.22;2080189;28;20231;-69
2024/02/25 00:09:20;;;;;;;11.83;7.57;;;;;;;11.34;100.00;101427.75;2079957;28;20192;-69
2024/02/25 00:10:20;;;;;;;13.10;7.37;;;;;;;10.97;100.00;101366.81;2080002;28;20593;-69
2024/02/25 00:11:21;;;;;;;13.23;7.50;;;;;;;11.27;100.00;101416.75;2079728;28;20677;-69
2024/02/25 00:12:23;;;;;;;10.13;7.10;;;;;;;11.32;100.00;101415.50;2079890;28;20185;-69
2024/02/25 00:13:23;;;;;;;13.13;7.60;;;;;;;11.34;100.00;101422.22;2086682;28;20228;-69
2024/02/25 00:14:28;;;;;;;13.07;6.97;;;;;;;11.32;100.00;101419.03;2087587;28;21728;-69
2024/02/25 00:15:29;;;;;;;9.93;7.30;;;;;;;11.30;100.00;101415.91;2080716;28;20425;-69
2024/02/25 00:16:29;;;;;;;13.47;8.60;;;;;;;11.32;100.00;101410.72;2079427;28;20432;-69
2024/02/25 00:17:30;;;;;;;11.40;7.60;;;;;;;11.34;100.00;101411.09;2079883;28;20196;-69
2024/02/25 00:18:30;;;;;;;10.93;7.40;;;;;;;11.01;100.00;101364.81;2080006;28;20188;-69
2024/02/25 00:19:31;;;;;;;13.37;7.47;;;;;;;11.34;100.00;101405.56;2079853;28;20201;-69
2024/02/25 00:20:31;;;;;;;11.40;7.03;;;;;;;11.37;100.00;101407.47;2079931;28;20201;-69
2024/02/25 00:21:32;;;;;;;13.23;7.83;;;;;;;11.36;100.00;101397.59;2080084;28;20196;-69
2024/02/25 00:22:32;;;;;;;13.20;7.83;;;;;;;11.36;100.00;101403.13;2079200;28;20595;-69
2024/02/25 00:23:33;;;;;;;10.63;6.73;;;;;;;11.30;100.00;101388.16;2079638;28;20564;-69
2024/02/25 00:24:33;;;;;;;10.07;6.93;;;;;;;11.26;100.00;101381.09;2078355;28;20201;-69
2024/02/25 00:25:36;;;;;;;11.90;7.00;;;;;;;11.39;100.00;101401.50;2079960;28;20212;-69
2024/02/25 00:26:36;;;;;;;10.10;6.57;;;;;;;10.83;100.00;101310.78;2079889;28;20699;-69
2024/02/25 00:27:37;;;;;;;11.93;7.40;;;;;;;11.33;100.00;101387.31;2079887;28;20865;-69
2024/02/25 00:28:37;;;;;;;11.43;7.30;;;;;;;11.16;100.00;101368.94;2079756;28;20207;-69
2024/02/25 00:29:38;;;;;;;10.50;6.97;;;;;;;11.29;100.00;101394.94;2079706;28;20181;-69
2024/02/25 00:30:38;;;;;;;10.23;5.77;;;;;;;11.30;100.00;101398.47;2079601;28;20193;-69
2024/02/25 00:31:39;;;;;;;12.07;6.93;;;;;;;11.26;100.00;101401.31;2080196;28;20188;-69
2024/02/25 00:32:39;;;;;;;10.30;7.10;;;;;;;11.27;100.00;101400.09;2079015;28;20188;-69
2024/02/25 00:33:40;;;;;;;11.70;7.33;;;;;;;11.26;100.00;101404.06;2079822;28;20275;-69
2024/02/25 00:34:40;;;;;;;11.17;6.80;;;;;;;11.27;100.00;101397.31;2079383;28;20189;-69
2024/02/25 00:35:41;;;;;;;11.53;7.20;;;;;;;11.26;100.00;101406.84;2079862;28;20634;-69
2024/02/25 00:36:42;;;;;;;10.93;6.80;;;;;;;11.26;100.00;101409.63;2079288;28;20702;-69
2024/02/25 00:37:42;;;;;;;13.10;6.73;;;;;;;11.09;100.00;101391.25;2079623;28;20694;-69
2024/02/25 00:38:43;;;;;;;12.07;7.20;;;;;;;11.12;100.00;101403.50;2079771;28;20246;-69
2024/02/25 00:39:43;;;;;;;12.27;7.40;;;;;;;11.12;100.00;101409.81;2080325;28;20181;-69
2024/02/25 00:40:44;;;;;;;11.20;7.53;;;;;;;11.17;100.00;101409.34;2079963;28;20251;-69
2024/02/25 00:41:45;;;;;;;10.83;7.53;;;;;;;11.17;100.00;101428.00;2079937;28;20199;-69
2024/02/25 00:42:45;;;;;;;10.53;6.67;;;;;;;10.25;100.00;101267.59;2078847;28;20654;-69
2024/02/25 00:43:46;;;;;;;12.17;7.30;;;;;;;11.16;100.00;101413.34;2079228;28;20894;-69
2024/02/25 00:44:48;;;;;;;11.83;7.37;;;;;;;11.06;100.00;101399.63;2079472;28;20200;-69
2024/02/25 00:45:49;;;;;;;10.43;7.03;;;;;;;11.13;100.00;101416.94;2079670;28;20196;-69
2024/02/25 00:46:49;;;;;;;11.70;7.67;;;;;;;11.12;100.00;101409.03;2079597;28;20436;-69
2024/02/25 00:47:50;;;;;;;13.27;7.90;;;;;;;11.11;100.00;101408.25;2080241;28;20235;-69
2024/02/25 00:48:50;;;;;;;11.60;7.27;;;;;;;11.12;100.00;101406.28;2079689;28;20197;-69
2024/02/25 00:49:51;;;;;;;12.30;7.17;;;;;;;11.08;100.00;101402.75;2079821;28;20217;-69
2024/02/25 00:50:52;;;;;;;10.63;7.00;;;;;;;11.08;100.00;101406.31;2079854;28;20204;-69
2024/02/25 00:51:52;;;;;;;13.20;7.93;;;;;;;11.09;100.00;101399.56;2079560;28;20189;-69
2024/02/25 00:52:53;;;;;;;14.57;7.90;;;;;;;11.08;100.00;101386.91;2078821;28;20212;-69
2024/02/25 00:53:53;;;;;;;11.77;7.23;;;;;;;11.17;100.00;101395.47;2078581;28;20193;-69
2024/02/25 00:54:54;;;;;;;12.47;7.70;;;;;;;11.19;100.00;101386.75;2079514;28;20185;-69
2024/02/25 00:55:55;;;;;;;10.57;7.33;;;;;;;11.18;100.00;101397.03;2080405;28;20562;-69
2024/02/25 00:56:55;;;;;;;10.87;7.53;;;;;;;11.18;100.00;101391.50;2079646;28;20193;-69
2024/02/25 00:57:56;;;;;;;14.33;7.63;;;;;;;11.11;100.00;101380.50;2079914;28;20485;-69
2024/02/25 00:58:56;;;;;;;11.63;7.77;;;;;;;11.10;100.00;101381.72;2087244;28;20285;-69
2024/02/25 00:59:57;;;;;;;11.87;7.67;;;;;;;11.19;100.00;101401.41;2087082;28;20199;-69
2024/02/25 01:00:58;;;;;;;12.03;7.37;;;;;;;11.18;100.00;101396.28;2079380;28;20611;-69
2024/02/25 01:01:58;;;;;;;14.43;7.77;;;;;;;11.11;100.00;101399.94;2079375;28;20201;-69
2024/02/25 01:02:59;;;;;;;10.73;7.37;;;;;;;10.95;100.00;101401.72;2077905;28;20200;-69
2024/02/25 01:03:59;;;;;;;11.47;7.30;;;;;;;10.91;100.00;101401.00;2079710;28;20187;-69
2024/02/25 01:05:00;;;;;;;10.50;6.90;;;;;;;10.94;100.00;101412.06;2079549;28;20196;-69
2024/02/25 01:06:01;;;;;;;13.43;7.37;;;;;;;10.99;100.00;101397.72;2079751;28;20193;-69
2024/02/25 01:07:02;;;;;;;12.07;7.13;;;;;;;10.26;100.00;101279.47;2079445;28;20986;-69
2024/02/25 01:08:03;;;;;;;14.67;8.43;;;;;;;10.96;100.00;101387.44;2079734;28;20693;-69
2024/02/25 01:09:04;;;;;;;14.23;7.97;;;;;;;11.03;100.00;101392.94;2079466;28;20200;-69
2024/02/25 01:10:05;;;;;;;11.53;7.43;;;;;;;11.03;100.00;101398.47;2079182;28;20555;-69
2024/02/25 01:11:06;;;;;;;11.00;8.03;;;;;;;10.44;100.00;101297.44;2079534;28;20272;-69
2024/02/25 01:12:07;;;;;;;12.03;7.67;;;;;;;11.08;100.00;101395.22;2079171;28;20461;-69
2024/02/25 01:13:07;;;;;;;10.93;7.40;;;;;;;10.37;100.00;101297.56;2086833;28;20191;-69
2024/02/25 01:14:08;;;;;;;13.00;7.87;;;;;;;10.84;100.00;101357.50;2086429;28;20562;-69
2024/02/25 01:15:09;;;;;;;13.87;8.13;;;;;;;11.08;100.00;101394.44;2078645;28;20197;-69
2024/02/25 01:16:09;;;;;;;15.63;8.37;;;;;;;11.05;100.00;101403.56;2078819;28;20200;-69
2024/02/25 01:17:10;;;;;;;12.97;8.13;;;;;;;10.90;100.00;101383.56;2079328;28;20966;-69
2024/02/25 01:18:10;;;;;;;13.77;8.23;;;;;;;11.00;100.00;101404.03;2079482;28;20201;-69
2024/02/25 01:19:11;;;;;;;13.90;7.97;;;;;;;11.01;100.00;101409.19;2079368;28;20185;-69
2024/02/25 01:20:11;;;;;;;13.13;8.07;;;;;;;11.04;100.00;101405.59;2079512;28;20212;-69
2024/02/25 01:21:12;;;;;;;13.33;8.17;;;;;;;11.05;100.00;101400.81;2080061;28;20690;-69
2024/02/25 01:22:12;;;;;;;15.07;8.43;;;;;;;10.45;100.00;101306.56;2079530;28;20209;-69
2024/02/25 01:23:13;;;;;;;10.97;7.23;;;;;;;11.10;100.00;101397.56;2078445;28;20685;-69
2024/02/25 01:24:13;;;;;;;14.77;8.07;;;;;;;10.84;100.00;101356.72;2078856;28;20212;-69
2024/02/25 01:25:14;;;;;;;13.40;7.90;;;;;;;10.95;100.00;101385.88;2079103;28;20208;-69
2024/02/25 01:26:15;;;;;;;11.50;7.30;;;;;;;10.71;100.00;101339.09;2079547;28;20224;-69
2024/02/25 01:27:15;;;;;;;9.77;6.90;;;;;;;11.14;100.00;101406.63;2079305;28;20189;-69
2024/02/25 01:28:16;;;;;;;10.97;7.23;;;;;;;11.11;100.00;101407.44;2079426;28;20216;-69
2024/02/25 01:29:16;;;;;;;15.13;7.30;;;;;;;11.11;100.00;101413.00;2080019;28;20189;-69
2024/02/25 01:30:17;;;;;;;11.57;7.17;;;;;;;11.12;100.00;101412.59;2078934;28;20224;-69
2024/02/25 01:31:17;;;;;;;11.07;7.23;;;;;;;10.67;100.00;101338.34;2079328;28;20334;-69
2024/02/25 01:32:18;;;;;;;10.37;7.03;;;;;;;11.12;100.00;101411.81;2079441;28;20619;-69
2024/02/25 01:33:19;;;;;;;11.10;7.87;;;;;;;11.07;100.00;101407.50;2078445;28;20690;-69
2024/02/25 01:34:21;;;;;;;11.67;6.83;;;;;;;11.03;100.00;101403.22;2078553;28;20231;-69
2024/02/25 01:35:21;;;;;;;13.03;7.53;;;;;;;10.92;100.00;101399.81;2079512;28;20185;-69
2024/02/25 01:36:22;;;;;;;12.50;7.10;;;;;;;10.72;100.00;101385.00;2079226;28;20424;-69
2024/02/25 01:37:22;;;;;;;11.93;8.60;;;;;;;10.97;100.00;101404.88;2078904;28;20231;-69
2024/02/25 01:38:23;;;;;;;12.87;8.07;;;;;;;10.93;100.00;101399.41;2079972;28;20198;-69
2024/02/25 01:39:23;;;;;;;11.57;7.10;;;;;;;10.93;100.00;101401.38;2079393;28;20192;-69
2024/02/25 01:40:24;;;;;;;12.80;8.03;;;;;;;10.85;100.00;101383.25;2078627;28;20196;-69
2024/02/25 01:41:25;;;;;;;13.67;8.03;;;;;;;10.91;100.00;101392.69;2079388;28;20200;-69
2024/02/25 01:42:26;;;;;;;12.83;8.13;;;;;;;10.94;100.00;101400.16;2078991;28;20303;-69
2024/02/25 01:43:26;;;;;;;13.53;9.13;;;;;;;10.93;100.00;101395.81;2078571;28;20427;-69
2024/02/25 01:44:27;;;;;;;11.57;7.20;;;;;;;10.95;100.00;101399.75;2078103;28;20197;-69
2024/02/25 01:45:27;;;;;;;9.33;6.83;;;;;;;10.95;100.00;101396.97;2079211;28;20194;-69
2024/02/25 01:46:28;;;;;;;13.67;7.13;;;;;;;10.93;100.00;101399.41;2080066;28;20207;-69
2024/02/25 01:47:29;;;;;;;11.27;7.50;;;;;;;10.83;100.00;101392.00;2079216;28;20655;-69
2024/02/25 01:48:31;;;;;;;13.00;8.07;;;;;;;10.68;100.00;101387.03;2079463;28;20185;-69
2024/02/25 01:49:32;;;;;;;12.27;8.17;;;;;;;10.70;100.00;101390.16;2079098;28;20458;-69
2024/02/25 01:50:36;;;;;;;11.57;7.53;;;;;;;10.75;100.00;101392.47;2079325;28;20442;-69
2024/02/25 01:51:37;;;;;;;12.87;7.63;;;;;;;10.76;100.00;101382.97;2079066;28;20189;-69
2024/02/25 01:52:37;;;;;;;14.60;9.00;;;;;;;10.76;100.00;101378.19;2078449;28;20419;-69
2024/02/25 01:53:38;;;;;;;11.67;8.20;;;;;;;10.83;100.00;101392.00;2086557;28;20615;-69
2024/02/25 01:54:39;;;;;;;16.13;8.27;;;;;;;10.87;100.00;101386.41;2086216;28;20180;-69
2024/02/25 01:55:42;;;;;;;16.80;9.30;;;;;;;10.88;100.00;101386.00;2079863;28;20265;-69
2024/02/25 01:56:43;;;;;;;14.07;8.13;;;;;;;10.21;100.00;101279.94;2079080;28;20505;-69
2024/02/25 01:57:44;;;;;;;13.67;8.60;;;;;;;10.91;100.00;101389.91;2079332;28;20447;-69
2024/02/25 01:58:52;;;;;;;10.97;7.57;;;;;;;10.88;100.00;101379.66;2079316;28;20461;-69
2024/02/25 01:59:55;;;;;;;16.73;9.77;;;;;;;10.69;100.00;101378.31;2079213;28;20189;-69
2024/02/25 02:00:55;;;;;;;11.73;7.57;;;;;;;10.70;100.00;101377.09;2079170;28;20452;-69
2024/02/25 02:01:56;;;;;;;12.70;7.60;;;;;;;10.76;100.00;101380.22;2079183;28;20458;-69
2024/02/25 02:02:59;;;;;;;12.63;7.97;;;;;;;10.68;100.00;101359.31;2078335;28;20674;-69
2024/02/25 02:03:59;;;;;;;13.40;9.23;;;;;;;10.79;100.00;101376.59;2078544;28;20577;-69
2024/02/25 02:05:00;;;;;;;16.93;9.87;;;;;;;10.75;100.00;101371.09;2078840;28;20458;-69
2024/02/25 02:06:01;;;;;;;19.00;10.47;;;;;;;10.78;100.00;101372.25;2079855;28;20592;-69
2024/02/25 02:07:02;;;;;;;16.67;9.67;;;;;;;10.77;100.00;101365.13;2078755;28;20658;-69
2024/02/25 02:08:03;;;;;;;16.07;10.60;;;;;;;10.74;100.00;101355.66;2079436;28;20451;-69
2024/02/25 02:09:04;;;;;;;19.47;10.93;;;;;;;10.82;100.00;101361.91;2079164;28;20479;-69
2024/02/25 02:10:08;;;;;;;12.27;8.17;;;;;;;10.83;100.00;101360.69;2079193;28;20451;-69
2024/02/25 02:11:19;;;;;;;16.07;8.47;;;;;;;10.81;100.00;101363.88;2079107;28;20283;-69
2024/02/25 02:12:19;;;;;;;12.43;8.03;;;;;;;10.83;100.00;101360.69;2078796;28;20455;-69
2024/02/25 02:13:21;;;;;;;13.37;8.50;;;;;;;10.83;100.00;101355.94;2078172;28;20428;-69
2024/02/25 02:14:21;;;;;;;15.37;9.03;;;;;;;10.88;100.00;101349.94;2078432;28;20192;-69
2024/02/25 02:15:22;;;;;;;17.53;9.63;;;;;;;10.90;100.00;101358.63;2078988;28;20439;-69
2024/02/25 02:16:25;;;;;;;14.97;8.93;;;;;;;10.90;100.00;101358.63;2079871;28;20185;-69
2024/02/25 02:17:25;;;;;;;13.27;9.17;;;;;;;10.87;100.00;101356.66;2079258;28;20197;-69
2024/02/25 02:18:26;;;;;;;14.30;9.50;;;;;;;10.89;100.00;101345.16;2079078;28;20534;-69
2024/02/25 02:19:26;;;;;;;14.50;8.37;;;;;;;10.87;100.00;101353.13;2078906;28;20197;-69
2024/02/25 02:20:30;;;;;;;13.70;8.10;;;;;;;9.74;100.00;101173.66;2079147;28;20197;-69
2024/02/25 02:21:31;;;;;;;12.50;8.03;;;;;;;10.94;100.00;101350.25;2079038;28;20792;-69
2024/02/25 02:22:31;;;;;;;10.90;7.57;;;;;;;10.87;100.00;101351.13;2079914;28;20466;-69
2024/02/25 02:23:32;;;;;;;11.43;8.33;;;;;;;10.86;100.00;101352.31;2080366;28;20200;-69
2024/02/25 02:24:33;;;;;;;13.37;8.13;;;;;;;10.88;100.00;101360.25;2080141;28;20191;-69
2024/02/25 02:25:33;;;;;;;13.07;8.53;;;;;;;10.90;100.00;101355.84;2080517;28;20291;-69
2024/02/25 02:26:33;;;;;;;14.90;8.67;;;;;;;10.91;100.00;101354.63;2088470;28;20980;-69
2024/02/25 02:27:41;;;;;;;12.90;8.50;;;;;;;10.89;100.00;101365.38;2088421;28;20605;-69
2024/02/25 02:28:41;;;;;;;12.93;8.13;;;;;;;10.91;100.00;101367.72;2080402;28;20704;-69
2024/02/25 02:29:42;;;;;;;13.57;9.37;;;;;;;10.66;100.00;101320.91;2080907;28;20514;-69
2024/02/25 02:30:43;;;;;;;12.50;8.13;;;;;;;10.70;100.00;101334.72;2080880;28;20196;-69
2024/02/25 02:31:43;;;;;;;11.27;7.67;;;;;;;10.88;100.00;101363.00;2088156;28;20183;-69
2024/02/25 02:32:44;;;;;;;14.47;7.40;;;;;;;10.92;100.00;101374.84;2087372;28;20683;-69
2024/02/25 02:33:45;;;;;;;14.83;8.40;;;;;;;10.94;100.00;101377.97;2080648;28;20264;-69
2024/02/25 02:34:45;;;;;;;10.87;7.20;;;;;;;10.92;100.00;101372.84;2081238;28;20181;-69
2024/02/25 02:35:46;;;;;;;10.40;7.17;;;;;;;10.94;100.00;101373.22;2080806;28;20743;-69
2024/02/25 02:36:49;;;;;;;12.37;7.87;;;;;;;10.89;100.00;101368.16;2080763;28;20272;-69
2024/02/25 02:37:49;;;;;;;13.03;7.93;;;;;;;10.99;100.00;101378.31;2080621;28;20232;-69
2024/02/25 02:38:49;;;;;;;13.93;7.70;;;;;;;10.92;100.00;101367.28;2080630;28;20448;-69
2024/02/25 02:39:50;;;;;;;13.73;8.27;;;;;;;10.04;100.00;101242.16;2080599;28;21536;-69
2024/02/25 02:40:50;;;;;;;14.50;7.80;;;;;;;10.90;100.00;101380.81;2088144;28;20188;-69
2024/02/25 02:41:51;;;;;;;12.77;8.67;;;;;;;10.67;100.00;101343.88;2087818;28;20645;-69
2024/02/25 02:42:52;;;;;;;13.73;8.83;;;;;;;10.80;100.00;101378.94;2079694;28;20986;-69
2024/02/25 02:43:53;;;;;;;13.13;8.33;;;;;;;10.82;100.00;101382.09;2079374;28;20212;-69
2024/02/25 02:44:53;;;;;;;12.87;7.70;;;;;;;10.15;100.00;101284.38;2080641;28;20439;-69
2024/02/25 02:45:55;;;;;;;12.63;8.07;;;;;;;10.77;100.00;101379.78;2080769;28;20662;-69
2024/02/25 02:46:56;;;;;;;13.83;9.03;;;;;;;10.74;100.00;101383.38;2080549;28;20562;-69
2024/02/25 02:47:56;;;;;;;14.20;8.77;;;;;;;10.70;100.00;101376.28;2080656;28;20453;-69
2024/02/25 02:48:57;;;;;;;16.27;9.03;;;;;;;10.66;100.00;101379.13;2080708;28;20463;-69
2024/02/25 02:49:57;;;;;;;12.33;8.13;;;;;;;10.67;100.00;101379.91;2079797;28;20205;-69
2024/02/25 02:50:58;;;;;;;12.83;7.73;;;;;;;10.69;100.00;101377.50;2080549;28;20185;-69
2024/02/25 02:51:59;;;;;;;13.67;8.43;;;;;;;10.70;100.00;101381.84;2080498;28;20219;-69
2024/02/25 02:52:59;;;;;;;10.57;7.87;;;;;;;10.69;100.00;101378.31;2079663;28;20189;-69
2024/02/25 02:54:02;;;;;;;10.73;7.13;;;;;;;10.71;100.00;101378.66;2079961;28;20447;-69
2024/02/25 02:55:03;;;;;;;11.20;7.23;;;;;;;10.73;100.00;101375.47;2080458;28;20200;-69
2024/02/25 02:56:04;;;;;;;11.83;6.97;;;;;;;10.17;100.00;101293.03;2080479;28;20446;-69
2024/02/25 02:57:04;;;;;;;11.17;7.87;;;;;;;10.71;100.00;101373.13;2080462;28;20189;-69
2024/02/25 02:58:05;;;;;;;10.93;7.10;;;;;;;10.73;100.00;101376.28;2080544;28;20189;-69
2024/02/25 02:59:05;;;;;;;12.03;7.73;;;;;;;10.65;100.00;101366.47;2080075;28;20223;-69
2024/02/25 03:00:07;;;;;;;17.93;8.53;;;;;;;10.63;100.00;101362.53;2081165;28;20189;-69
2024/02/25 03:01:07;;;;;;;14.20;8.00;;;;;;;10.69;100.00;101383.03;2079457;28;20227;-69
2024/02/25 03:02:08;;;;;;;12.93;7.80;;;;;;;10.74;100.00;101391.72;2080354;28;20471;-69
2024/02/25 03:03:08;;;;;;;11.80;8.17;;;;;;;10.76;100.00;101389.28;2079555;28;20191;-69
2024/02/25 03:04:09;;;;;;;11.57;7.73;;;;;;;10.78;100.00;101395.22;2080113;28;20548;-69
2024/02/25 03:05:09;;;;;;;12.57;7.20;;;;;;;10.78;100.00;101394.44;2080402;28;20211;-69
2024/02/25 03:06:10;;;;;;;14.57;7.67;;;;;;;10.80;100.00;101394.78;2080519;28;20271;-69
2024/02/25 03:07:10;;;;;;;14.93;8.30;;;;;;;10.77;100.00;101387.31;2080372;28;20196;-69
2024/02/25 03:08:11;;;;;;;12.97;7.23;;;;;;;10.84;100.00;101392.75;2081093;28;20185;-69
2024/02/25 03:09:14;;;;;;;11.33;7.73;;;;;;;10.63;100.00;101357.00;2080485;28;20279;-69
2024/02/25 03:10:16;;;;;;;13.03;7.80;;;;;;;10.83;100.00;101385.66;2080557;28;20579;-69
2024/02/25 03:11:17;;;;;;;15.53;8.13;;;;;;;10.62;100.00;101360.97;2080457;28;20661;-69
2024/02/25 03:12:17;;;;;;;11.60;7.30;;;;;;;10.84;100.00;101381.66;2080475;28;20443;-69
2024/02/25 03:13:18;;;;;;;11.93;7.77;;;;;;;10.82;100.00;101386.84;2078499;28;20211;-69
2024/02/25 03:14:19;;;;;;;12.67;7.80;;;;;;;10.01;100.00;101276.19;2079950;28;20255;-69
2024/02/25 03:15:19;;;;;;;10.43;7.40;;;;;;;10.81;100.00;101386.06;2080383;28;20658;-69
2024/02/25 03:16:20;;;;;;;12.80;7.33;;;;;;;10.79;100.00;101391.25;2079680;28;20189;-69
2024/02/25 03:17:21;;;;;;;15.27;7.93;;;;;;;10.77;100.00;101403.94;2079912;28;20195;-69
2024/02/25 03:18:21;;;;;;;12.63;8.07;;;;;;;10.78;100.00;101403.53;2080281;28;20709;-69
2024/02/25 03:19:21;;;;;;;11.30;7.40;;;;;;;10.79;100.00;101407.09;2080385;28;21019;-69
2024/02/25 03:20:24;;;;;;;11.77;6.80;;;;;;;10.82;100.00;101395.19;2080358;28;20749;-69
2024/02/25 03:21:24;;;;;;;13.87;6.93;;;;;;;10.73;100.00;101387.38;2081064;28;20191;-69
2024/02/25 03:22:25;;;;;;;14.00;7.67;;;;;;;10.80;100.00;101395.59;2080092;28;20569;-69
2024/02/25 03:23:25;;;;;;;10.53;6.30;;;;;;;10.83;100.00;101393.97;2079700;28;20193;-69
2024/02/25 03:24:26;;;;;;;13.73;7.90;;;;;;;10.84;100.00;101395.53;2079594;28;20185;-69
2024/02/25 03:25:26;;;;;;;9.43;6.73;;;;;;;10.85;100.00;101400.66;2080420;28;20188;-69
2024/02/25 03:26:27;;;;;;;13.40;7.37;;;;;;;10.83;100.00;101402.28;2080373;28;20197;-69
2024/02/25 03:27:27;;;;;;;15.33;7.77;;;;;;;10.40;100.00;101329.19;2080286;28;20185;-69
2024/02/25 03:28:28;;;;;;;14.17;8.37;;;;;;;10.59;100.00;101361.78;2080426;28;20189;-69
2024/02/25 03:29:28;;;;;;;12.47;7.60;;;;;;;10.77;100.00;101404.72;2080783;28;20545;-69
2024/02/25 03:30:29;;;;;;;12.23;7.20;;;;;;;10.69;100.00;101397.72;2080405;28;20189;-69
2024/02/25 03:31:29;;;;;;;15.10;7.77;;;;;;;10.68;100.00;101395.34;2080030;28;20216;-69
2024/02/25 03:32:30;;;;;;;14.43;7.60;;;;;;;9.94;100.00;101281.81;2080119;28;20188;-69
2024/02/25 03:33:30;;;;;;;15.10;8.03;;;;;;;10.36;100.00;101333.97;2079583;28;20205;-69
2024/02/25 03:34:31;;;;;;;10.60;7.33;;;;;;;10.70;100.00;101390.97;2079810;28;20185;-69
2024/02/25 03:35:32;;;;;;;14.77;8.03;;;;;;;10.70;100.00;101384.63;2080020;28;20267;-69
2024/02/25 03:36:33;;;;;;;11.57;8.03;;;;;;;10.67;100.00;101379.91;2080356;28;20185;-69
2024/02/25 03:37:33;;;;;;;12.43;7.93;;;;;;;10.71;100.00;101391.75;2080644;28;20503;-69
2024/02/25 03:38:34;;;;;;;12.53;7.73;;;;;;;10.77;100.00;101384.53;2080217;28;20204;-69
2024/02/25 03:39:35;;;;;;;13.77;7.80;;;;;;;10.77;100.00;101387.31;2080225;28;20213;-69
2024/02/25 03:40:36;;;;;;;13.43;7.37;;;;;;;10.75;100.00;101390.50;2080309;28;20459;-69
2024/02/25 03:41:36;;;;;;;14.60;8.30;;;;;;;10.76;100.00;101382.97;2080161;28;20254;-69
2024/02/25 03:42:39;;;;;;;12.47;7.70;;;;;;;10.73;100.00;101387.38;2079419;28;20220;-69
2024/02/25 03:43:39;;;;;;;10.70;7.63;;;;;;;10.68;100.00;101384.25;2080183;28;20272;-69
2024/02/25 03:44:40;;;;;;;10.53;6.67;;;;;;;10.67;100.00;101386.22;2079270;28;20519;-69
2024/02/25 03:45:41;;;;;;;15.47;8.47;;;;;;;9.78;100.00;101245.59;2080084;28;20185;-69
2024/02/25 03:46:43;;;;;;;14.97;8.57;;;;;;;10.66;100.00;101378.34;2080869;28;20654;-69
2024/02/25 03:47:43;;;;;;;13.23;7.57;;;;;;;10.63;100.00;101377.19;2080359;28;20185;-69
2024/02/25 03:48:44;;;;;;;11.93;8.00;;;;;;;10.61;100.00;101381.56;2080312;28;20531;-69
2024/02/25 03:49:44;;;;;;;12.13;7.93;;;;;;;10.62;100.00;101380.38;2080113;28;20199;-69
2024/02/25 03:50:45;;;;;;;12.47;7.83;;;;;;;10.61;100.00;101387.91;2079612;28;20705;-69
2024/02/25 03:51:45;;;;;;;11.67;8.30;;;;;;;9.96;100.00;101285.72;2079780;28;20208;-69
2024/02/25 03:52:46;;;;;;;15.37;9.40;;;;;;;10.64;100.00;101389.84;2079043;28;20240;-69
2024/02/25 03:53:47;;;;;;;14.00;9.37;;;;;;;10.62;100.00;101388.69;2079715;28;20263;-69
2024/02/25 03:54:47;;;;;;;11.90;8.20;;;;;;;9.91;100.00;101286.19;2080723;28;20189;-69
2024/02/25 03:55:48;;;;;;;14.10;8.73;;;;;;;10.59;100.00;101384.75;2080081;28;20223;-69
2024/02/25 03:56:48;;;;;;;14.50;8.77;;;;;;;10.58;100.00;101383.19;2080061;28;20228;-69
2024/02/25 03:57:49;;;;;;;14.30;8.40;;;;;;;10.59;100.00;101383.97;2079898;28;20193;-69
2024/02/25 03:58:49;;;;;;;14.60;8.37;;;;;;;10.57;100.00;101387.16;2080121;28;20266;-69
2024/02/25 03:59:50;;;;;;;15.07;8.40;;;;;;;10.59;100.00;101383.97;2079866;28;20283;-69
2024/02/25 04:00:50;;;;;;;17.53;8.47;;;;;;;10.56;100.00;101385.56;2080067;28;20188;-69
2024/02/25 04:01:51;;;;;;;15.63;8.80;;;;;;;9.82;100.00;101272.03;2087486;28;20702;-69
2024/02/25 04:02:51;;;;;;;11.73;7.37;;;;;;;10.57;100.00;101392.72;2087594;28;20840;-69
2024/02/25 04:03:52;;;;;;;10.23;6.87;;;;;;;10.52;100.00;101392.38;2079648;28;20287;-69
2024/02/25 04:04:53;;;;;;;14.73;8.20;;;;;;;10.48;100.00;101391.63;2079994;28;20251;-69
2024/02/25 04:05:53;;;;;;;14.07;8.67;;;;;;;10.34;100.00;101395.34;2079541;28;20245;-69
2024/02/25 04:06:54;;;;;;;13.27;8.00;;;;;;;10.02;100.00;101380.19;2079870;28;20191;-69
2024/02/25 04:07:54;;;;;;;12.37;8.23;;;;;;;10.04;100.00;101394.47;2080101;28;20205;-69
2024/02/25 04:08:55;;;;;;;11.37;7.63;;;;;;;9.58;100.00;101322.88;2079965;28;20243;-69
2024/02/25 04:09:55;;;;;;;11.97;8.50;;;;;;;9.81;100.00;101347.97;2079909;28;20267;-69
2024/02/25 04:10:56;;;;;;;13.33;8.73;;;;;;;10.14;100.00;101394.34;2080620;28;20663;-69
2024/02/25 04:11:56;;;;;;;14.07;9.17;;;;;;;10.18;100.00;101397.09;2080034;28;20678;-69
2024/02/25 04:12:57;;;;;;;13.13;8.93;;;;;;;10.21;100.00;101391.53;2078599;28;20208;-69
2024/02/25 04:13:58;;;;;;;12.50;8.20;;;;;;;10.21;100.00;101390.72;2079400;28;20250;-69
2024/02/25 04:14:58;;;;;;;11.77;8.13;;;;;;;9.56;100.00;101288.50;2079934;28;20196;-69
2024/02/25 04:15:59;;;;;;;14.30;8.17;;;;;;;9.64;100.00;101312.91;2080165;28;20204;-69
2024/02/25 04:17:00;;;;;;;14.70;8.23;;;;;;;9.63;100.00;101313.34;2079782;28;20322;-69
2024/02/25 04:18:00;;;;;;;16.00;7.47;;;;;;;10.20;100.00;101409.31;2080008;28;20180;-69
2024/02/25 04:19:01;;;;;;;11.30;7.97;;;;;;;10.20;100.00;101411.31;2080542;28;20438;-69
2024/02/25 04:20:01;;;;;;;13.10;8.33;;;;;;;10.22;100.00;101409.72;2080533;28;20673;-69
2024/02/25 04:21:02;;;;;;;13.27;8.37;;;;;;;10.11;100.00;101381.34;2079884;28;20196;-69
2024/02/25 04:22:02;;;;;;;15.77;8.80;;;;;;;10.26;100.00;101401.38;2079680;28;20193;-69
2024/02/25 04:23:03;;;;;;;15.57;8.30;;;;;;;10.23;100.00;101402.97;2079134;28;20227;-69
2024/02/25 04:24:04;;;;;;;11.47;7.53;;;;;;;10.23;100.00;101397.44;2079434;28;20203;-69
2024/02/25 04:25:05;;;;;;;13.13;8.40;;;;;;;10.06;100.00;101364.38;2079757;28;20235;-69
2024/02/25 04:26:05;;;;;;;15.10;8.57;;;;;;;10.26;100.00;101401.38;2079627;28;20434;-69
2024/02/25 04:27:06;;;;;;;13.23;8.40;;;;;;;10.27;100.00;101397.38;2079832;28;20192;-69
2024/02/25 04:28:07;;;;;;;14.47;8.83;;;;;;;9.46;100.00;101276.34;2080447;28;20719;-69
2024/02/25 04:29:07;;;;;;;14.17;8.33;;;;;;;10.26;100.00;101395.81;2080091;28;20283;-69
2024/02/25 04:30:08;;;;;;;15.17;8.00;;;;;;;10.25;100.00;101397.78;2079961;28;20196;-69
2024/02/25 04:31:09;;;;;;;12.27;7.57;;;;;;;10.22;100.00;101400.59;2080005;28;20567;-69
2024/02/25 04:32:10;;;;;;;14.67;8.30;;;;;;;10.22;100.00;101401.41;2079812;28;20291;-69
2024/02/25 04:33:11;;;;;;;12.40;7.70;;;;;;;10.22;100.00;101400.59;2078972;28;20203;-69
2024/02/25 04:34:15;;;;;;;12.77;8.30;;;;;;;10.14;100.00;101404.66;2079495;28;20515;-69
2024/02/25 04:35:15;;;;;;;14.40;8.93;;;;;;;10.13;100.00;101405.84;2079615;28;20259;-69
2024/02/25 04:36:19;;;;;;;17.97;9.43;;;;;;;10.03;100.00;101406.69;2080490;28;20510;-69